Time;durP1;ratioP1;P1;durP2;ratioP2;P2;SDS_P1;SDS_P2;PMS_P1;PMS_P2;Temp;Humidity;BMP_temperature;BMP_pressure;BME280_temperature;BME280_humidity;BME280_pressure;Samples;Min_cycle;Max_cycle;Signal;HPM_P1;HPM_P2
2023/12/17 00:00:59;;;;;;;15.00;6.10;;;;;;;;;;5072603;28;20040;-88
2023/12/17 00:03:43;;;;;;;11.32;6.38;;;;;;;;;;5072600;28;20047;-89
2023/12/17 00:06:28;;;;;;;14.73;6.65;;;;;;;;;;5071616;28;20077;-87
2023/12/17 00:09:12;;;;;;;11.82;6.22;;;;;;;;;;5071804;28;20412;-87
2023/12/17 00:11:57;;;;;;;14.02;6.85;;;;;;;;;;5072249;28;20051;-88
2023/12/17 00:14:42;;;;;;;21.23;7.47;;;;;;;;;;5072039;28;20063;-87
2023/12/17 00:17:27;;;;;;;12.48;6.97;;;;;;;;;;5071557;28;20048;-87
2023/12/17 00:20:11;;;;;;;15.52;7.32;;;;;;;;;;5071614;28;20051;-87
2023/12/17 00:22:56;;;;;;;13.07;7.10;;;;;;;;;;5071839;28;20040;-88
2023/12/17 00:25:41;;;;;;;13.95;7.15;;;;;;;;;;5071957;28;20102;-87
2023/12/17 00:28:25;;;;;;;15.32;6.65;;;;;;;;;;5071267;28;20306;-85
2023/12/17 00:31:10;;;;;;;10.55;6.75;;;;;;;;;;5071596;28;20061;-87
2023/12/17 00:33:55;;;;;;;14.23;6.00;;;;;;;;;;5072490;28;20072;-88
2023/12/17 00:36:39;;;;;;;17.73;6.75;;;;;;;;;;5071845;28;20039;-87
2023/12/17 00:39:24;;;;;;;14.00;6.22;;;;;;;;;;5070980;28;20063;-87
2023/12/17 00:42:08;;;;;;;18.77;7.07;;;;;;;;;;5071402;28;20491;-82
2023/12/17 00:44:53;;;;;;;12.57;6.53;;;;;;;;;;5084860;28;20047;-87
2023/12/17 00:47:37;;;;;;;14.27;6.53;;;;;;;;;;5071244;28;20109;-88
2023/12/17 00:50:22;;;;;;;16.33;6.70;;;;;;;;;;5070971;28;20044;-88
2023/12/17 00:53:06;;;;;;;12.88;6.50;;;;;;;;;;5071678;28;20149;-88
2023/12/17 00:55:51;;;;;;;11.48;6.28;;;;;;;;;;5071162;28;20086;-87
2023/12/17 00:58:36;;;;;;;12.73;5.85;;;;;;;;;;5084276;28;20039;-89
2023/12/17 01:01:21;;;;;;;19.08;6.57;;;;;;;;;;5071013;28;20102;-88
2023/12/17 01:04:06;;;;;;;14.52;7.43;;;;;;;;;;5071237;28;20086;-87
2023/12/17 01:06:51;;;;;;;11.40;5.80;;;;;;;;;;5071607;28;20032;-88
2023/12/17 01:09:35;;;;;;;14.07;6.50;;;;;;;;;;5083875;28;20401;-88
2023/12/17 01:12:20;;;;;;;12.48;6.45;;;;;;;;;;5071118;28;20055;-89
2023/12/17 01:15:04;;;;;;;11.18;6.78;;;;;;;;;;5071078;28;20504;-86
2023/12/17 01:17:49;;;;;;;14.60;6.25;;;;;;;;;;5084516;28;20602;-89
2023/12/17 01:20:34;;;;;;;20.00;6.20;;;;;;;;;;5070617;28;20690;-88
2023/12/17 01:23:19;;;;;;;9.70;6.30;;;;;;;;;;5083450;28;20044;-89
2023/12/17 01:26:03;;;;;;;12.13;5.90;;;;;;;;;;5071174;28;20503;-89
2023/12/17 01:28:48;;;;;;;16.23;6.97;;;;;;;;;;5071057;28;20550;-88
2023/12/17 01:31:33;;;;;;;12.98;5.57;;;;;;;;;;5070464;28;20400;-89
2023/12/17 01:34:20;;;;;;;14.50;5.93;;;;;;;;;;5070369;28;20392;-83
2023/12/17 01:37:04;;;;;;;11.90;5.95;;;;;;;;;;5070591;28;20043;-88
2023/12/17 01:39:49;;;;;;;12.93;5.82;;;;;;;;;;5070779;28;20103;-88
2023/12/17 01:42:33;;;;;;;13.18;6.07;;;;;;;;;;5070363;28;20043;-88
2023/12/17 01:45:18;;;;;;;15.25;6.78;;;;;;;;;;5070603;28;20043;-84
2023/12/17 01:48:03;;;;;;;12.98;6.38;;;;;;;;;;5071074;28;20039;-88
2023/12/17 01:50:47;;;;;;;14.13;6.50;;;;;;;;;;5070431;28;20455;-88
2023/12/17 01:53:32;;;;;;;11.10;5.75;;;;;;;;;;5070271;28;20114;-88
2023/12/17 01:56:17;;;;;;;9.52;5.82;;;;;;;;;;5070860;28;20467;-88
2023/12/17 01:59:02;;;;;;;17.67;7.15;;;;;;;;;;5055752;28;20068;-87
2023/12/17 02:01:48;;;;;;;19.80;5.80;;;;;;;;;;5072880;28;20174;-88
2023/12/17 02:04:33;;;;;;;14.50;5.65;;;;;;;;;;5070934;28;20036;-88
2023/12/17 02:07:17;;;;;;;12.13;5.82;;;;;;;;;;5071552;28;20048;-87
2023/12/17 02:10:02;;;;;;;15.88;6.18;;;;;;;;;;5071948;28;20457;-86
2023/12/17 02:12:46;;;;;;;15.25;6.25;;;;;;;;;;5074410;28;20035;-88
2023/12/17 02:15:31;;;;;;;9.25;6.20;;;;;;;;;;5073895;28;20538;-88
2023/12/17 02:18:16;;;;;;;12.93;5.95;;;;;;;;;;5072875;28;20581;-89
2023/12/17 02:21:00;;;;;;;14.25;6.15;;;;;;;;;;5074250;28;20063;-89
2023/12/17 02:23:45;;;;;;;18.27;6.35;;;;;;;;;;5073639;28;20439;-88
2023/12/17 02:26:30;;;;;;;13.40;5.93;;;;;;;;;;5073080;28;20035;-88
2023/12/17 02:29:14;;;;;;;10.43;5.55;;;;;;;;;;5074757;28;20566;-89
2023/12/17 02:31:58;;;;;;;16.23;6.05;;;;;;;;;;5074868;28;20436;-89
2023/12/17 02:34:43;;;;;;;16.50;6.80;;;;;;;;;;5074578;28;20067;-89
2023/12/17 02:37:27;;;;;;;12.20;5.82;;;;;;;;;;5074628;28;20038;-88
2023/12/17 02:40:12;;;;;;;14.27;7.22;;;;;;;;;;5074959;28;20110;-88
2023/12/17 02:42:56;;;;;;;15.40;7.03;;;;;;;;;;5073130;28;20040;-88
2023/12/17 02:45:41;;;;;;;16.02;6.53;;;;;;;;;;5074251;28;20039;-88
2023/12/17 02:48:26;;;;;;;15.35;6.53;;;;;;;;;;5074270;28;20052;-84
2023/12/17 02:51:10;;;;;;;17.08;6.65;;;;;;;;;;5087992;28;20385;-89
2023/12/17 02:53:55;;;;;;;14.77;6.55;;;;;;;;;;5074832;28;20060;-88
2023/12/17 02:56:40;;;;;;;14.65;6.22;;;;;;;;;;5074019;28;20488;-88
2023/12/17 02:59:24;;;;;;;17.17;6.35;;;;;;;;;;5074568;28;20124;-89
2023/12/17 03:02:09;;;;;;;13.25;6.35;;;;;;;;;;5076268;28;20115;-88
2023/12/17 03:04:53;;;;;;;15.63;6.60;;;;;;;;;;5074497;28;20086;-89
2023/12/17 03:07:38;;;;;;;11.77;6.97;;;;;;;;;;5074167;28;20089;-88
2023/12/17 03:10:23;;;;;;;17.95;7.13;;;;;;;;;;5074531;28;20040;-89
2023/12/17 03:13:07;;;;;;;15.70;6.18;;;;;;;;;;5074413;28;20116;-88
2023/12/17 03:15:52;;;;;;;17.30;6.65;;;;;;;;;;5073927;28;20043;-88
2023/12/17 03:18:36;;;;;;;12.40;6.05;;;;;;;;;;5073537;28;20048;-88
2023/12/17 03:21:23;;;;;;;20.50;7.70;;;;;;;;;;5074201;28;20120;-88
2023/12/17 03:24:08;;;;;;;15.60;7.22;;;;;;;;;;5074219;28;20047;-88
2023/12/17 03:26:52;;;;;;;14.70;7.05;;;;;;;;;;5073539;28;20040;-89
2023/12/17 03:29:37;;;;;;;15.68;7.15;;;;;;;;;;5073592;28;20047;-89
2023/12/17 03:32:21;;;;;;;13.20;6.85;;;;;;;;;;5073940;28;20027;-88
2023/12/17 03:35:07;;;;;;;12.40;6.10;;;;;;;;;;5073978;28;20530;-88
2023/12/17 03:37:51;;;;;;;16.45;6.63;;;;;;;;;;5073439;28;20098;-89
2023/12/17 03:40:36;;;;;;;24.60;6.88;;;;;;;;;;5073045;28;20055;-88
2023/12/17 03:43:20;;;;;;;17.00;5.90;;;;;;;;;;5073872;28;20435;-89
2023/12/17 03:46:06;;;;;;;16.63;6.43;;;;;;;;;;5073643;28;20090;-89
2023/12/17 03:48:51;;;;;;;12.70;5.78;;;;;;;;;;5086388;28;20069;-84
2023/12/17 03:51:35;;;;;;;12.48;6.40;;;;;;;;;;5073251;28;20035;-84
2023/12/17 03:54:20;;;;;;;15.93;6.50;;;;;;;;;;5073475;28;20088;-88
2023/12/17 03:57:04;;;;;;;11.65;6.28;;;;;;;;;;5073695;28;20487;-88
2023/12/17 03:59:49;;;;;;;14.02;6.50;;;;;;;;;;5072866;28;20487;-89
2023/12/17 04:02:34;;;;;;;15.55;6.20;;;;;;;;;;5086685;28;20044;-85
2023/12/17 04:05:18;;;;;;;12.82;6.55;;;;;;;;;;5062080;28;20067;-89
2023/12/17 04:08:03;;;;;;;17.52;6.43;;;;;;;;;;5072994;28;20070;-88
2023/12/17 04:10:47;;;;;;;20.67;7.47;;;;;;;;;;5072848;28;20143;-89
2023/12/17 04:13:32;;;;;;;13.30;6.85;;;;;;;;;;5073268;28;20404;-88
2023/12/17 04:16:16;;;;;;;14.60;7.00;;;;;;;;;;5073028;28;20044;-88
2023/12/17 04:19:01;;;;;;;13.48;6.70;;;;;;;;;;5072485;28;20060;-87
2023/12/17 04:21:45;;;;;;;15.02;7.40;;;;;;;;;;5072428;28;20443;-87
2023/12/17 04:24:30;;;;;;;11.63;6.45;;;;;;;;;;5072939;28;20094;-87
2023/12/17 04:27:14;;;;;;;21.05;5.97;;;;;;;;;;5072894;28;20070;-88
2023/12/17 04:29:59;;;;;;;19.92;7.13;;;;;;;;;;5072220;28;20170;-88
2023/12/17 04:32:43;;;;;;;12.73;6.03;;;;;;;;;;5071827;28;20400;-87
2023/12/17 04:35:28;;;;;;;15.63;6.10;;;;;;;;;;5072642;28;20031;-88
2023/12/17 04:38:14;;;;;;;11.20;5.97;;;;;;;;;;5072758;28;20090;-88
2023/12/17 04:40:59;;;;;;;13.68;6.70;;;;;;;;;;5057374;28;20071;-88
2023/12/17 04:43:43;;;;;;;14.52;6.40;;;;;;;;;;5072155;28;20530;-84
2023/12/17 04:46:29;;;;;;;15.57;6.13;;;;;;;;;;5086080;28;20086;-88
2023/12/17 04:49:13;;;;;;;13.00;6.35;;;;;;;;;;5072589;28;20226;-88
2023/12/17 04:51:58;;;;;;;19.90;6.97;;;;;;;;;;5085228;28;20041;-88
2023/12/17 04:54:43;;;;;;;12.35;6.18;;;;;;;;;;5072286;28;20059;-88
2023/12/17 04:57:27;;;;;;;13.50;6.25;;;;;;;;;;5072334;28;20040;-86
2023/12/17 05:00:12;;;;;;;12.18;6.40;;;;;;;;;;5060996;28;20504;-87
2023/12/17 05:02:57;;;;;;;14.23;6.50;;;;;;;;;;5071755;28;20039;-88
2023/12/17 05:05:41;;;;;;;18.63;6.40;;;;;;;;;;5072432;28;20067;-88
2023/12/17 05:08:26;;;;;;;15.27;7.38;;;;;;;;;;5072268;28;20117;-88
2023/12/17 05:11:10;;;;;;;13.40;7.20;;;;;;;;;;5071851;28;20055;-88
2023/12/17 05:13:55;;;;;;;17.80;8.40;;;;;;;;;;5071824;28;20075;-88
2023/12/17 05:16:41;;;;;;;13.98;7.50;;;;;;;;;;5072153;28;20082;-88
2023/12/17 05:19:26;;;;;;;11.23;7.50;;;;;;;;;;5072037;28;20110;-87
2023/12/17 05:22:10;;;;;;;12.95;7.35;;;;;;;;;;5071567;28;20039;-88
2023/12/17 05:24:55;;;;;;;18.48;7.50;;;;;;;;;;5071376;28;20094;-88
2023/12/17 05:27:39;;;;;;;15.20;6.93;;;;;;;;;;5072147;28;20147;-87
2023/12/17 05:30:24;;;;;;;11.55;6.40;;;;;;;;;;5070331;28;20511;-87
2023/12/17 05:33:08;;;;;;;10.32;5.78;;;;;;;;;;5071525;28;20059;-87
2023/12/17 05:35:53;;;;;;;14.05;6.38;;;;;;;;;;5056346;28;20046;-87
2023/12/17 05:38:37;;;;;;;9.93;5.38;;;;;;;;;;5071626;28;20055;-87
2023/12/17 05:41:22;;;;;;;14.48;5.35;;;;;;;;;;5072211;28;20451;-87
2023/12/17 05:44:06;;;;;;;12.85;5.45;;;;;;;;;;5071455;28;20086;-87
2023/12/17 05:46:51;;;;;;;12.65;5.55;;;;;;;;;;5075441;28;20038;-83
2023/12/17 05:49:39;;;;;;;9.18;4.97;;;;;;;;;;5089384;28;20519;-87
2023/12/17 05:52:24;;;;;;;12.70;5.97;;;;;;;;;;5075660;28;20043;-87
2023/12/17 05:55:09;;;;;;;10.45;5.45;;;;;;;;;;5075345;28;20106;-87
2023/12/17 05:57:53;;;;;;;12.55;5.28;;;;;;;;;;5075207;28;20416;-83
2023/12/17 06:00:37;;;;;;;14.20;5.95;;;;;;;;;;5075747;28;20123;-87
2023/12/17 06:03:22;;;;;;;11.18;6.50;;;;;;;;;;5075765;28;20495;-87
2023/12/17 06:06:07;;;;;;;7.30;4.75;;;;;;;;;;5074968;28;20074;-88
2023/12/17 06:08:52;;;;;;;9.93;4.78;;;;;;;;;;5075641;28;20040;-87
2023/12/17 06:11:37;;;;;;;11.20;4.97;;;;;;;;;;5075430;28;20393;-86
2023/12/17 06:14:21;;;;;;;8.85;4.70;;;;;;;;;;5060395;28;20043;-87
2023/12/17 06:17:06;;;;;;;11.70;5.05;;;;;;;;;;5074963;28;20056;-87
2023/12/17 06:19:51;;;;;;;13.25;5.45;;;;;;;;;;5075102;28;20456;-87
2023/12/17 06:22:36;;;;;;;14.43;4.93;;;;;;;;;;5075364;28;20086;-88
2023/12/17 06:25:21;;;;;;;13.65;4.90;;;;;;;;;;5074819;28;20177;-87
2023/12/17 06:28:05;;;;;;;8.40;4.60;;;;;;;;;;5074605;28;20048;-86
2023/12/17 06:30:50;;;;;;;12.82;4.70;;;;;;;;;;5075147;28;20116;-87
2023/12/17 06:33:34;;;;;;;8.77;4.28;;;;;;;;;;5074948;28;20032;-87
2023/12/17 06:36:20;;;;;;;10.70;3.80;;;;;;;;;;5074557;28;20139;-88
2023/12/17 06:39:09;;;;;;;11.27;3.67;;;;;;;;;;5059437;28;20500;-87
2023/12/17 06:41:53;;;;;;;15.75;4.00;;;;;;;;;;5074891;28;20432;-87
2023/12/17 06:44:38;;;;;;;8.10;3.78;;;;;;;;;;5074963;28;20044;-88
2023/12/17 06:47:22;;;;;;;11.95;4.00;;;;;;;;;;5074128;28;20044;-87
2023/12/17 06:50:07;;;;;;;7.20;3.70;;;;;;;;;;5074422;28;20040;-87
2023/12/17 06:52:52;;;;;;;11.82;4.03;;;;;;;;;;5074627;28;20035;-87
2023/12/17 06:55:36;;;;;;;9.70;3.97;;;;;;;;;;5074339;28;20086;-87
2023/12/17 06:58:21;;;;;;;12.25;4.95;;;;;;;;;;5074081;28;20051;-87
2023/12/17 07:01:06;;;;;;;8.00;4.50;;;;;;;;;;5072832;28;20078;-87
2023/12/17 07:03:50;;;;;;;15.20;4.85;;;;;;;;;;5074687;28;20055;-88
2023/12/17 07:06:36;;;;;;;17.67;6.43;;;;;;;;;;5074169;28;20085;-87
2023/12/17 07:09:20;;;;;;;10.68;4.85;;;;;;;;;;5072845;28;20436;-87
2023/12/17 07:12:05;;;;;;;16.88;6.80;;;;;;;;;;5072453;28;20066;-86
2023/12/17 07:14:50;;;;;;;8.15;5.13;;;;;;;;;;5072896;28;20082;-87
2023/12/17 07:17:34;;;;;;;11.07;5.13;;;;;;;;;;5071407;28;20719;-87
2023/12/17 07:20:19;;;;;;;8.63;5.20;;;;;;;;;;5073153;28;20044;-89
2023/12/17 07:23:04;;;;;;;18.80;6.55;;;;;;;;;;5073841;28;20048;-83
2023/12/17 07:25:48;;;;;;;15.45;6.30;;;;;;;;;;5074256;28;20031;-88
2023/12/17 07:28:33;;;;;;;11.40;5.97;;;;;;;;;;5074132;28;20039;-88
2023/12/17 07:31:17;;;;;;;11.50;6.40;;;;;;;;;;5073533;28;20090;-88
2023/12/17 07:34:02;;;;;;;18.65;5.90;;;;;;;;;;5074249;28;20039;-88
2023/12/17 07:36:47;;;;;;;17.25;6.13;;;;;;;;;;5074498;28;20039;-87
2023/12/17 07:39:31;;;;;;;13.90;6.03;;;;;;;;;;5073824;28;20055;-87
2023/12/17 07:42:16;;;;;;;20.10;6.88;;;;;;;;;;5073355;28;20109;-87
2023/12/17 07:45:00;;;;;;;13.98;6.70;;;;;;;;;;5073804;28;20040;-87
2023/12/17 07:47:44;;;;;;;15.35;7.10;;;;;;;;;;5073545;28;20036;-86
2023/12/17 07:50:29;;;;;;;14.15;6.70;;;;;;;;;;5072912;28;20043;-87
2023/12/17 07:53:14;;;;;;;16.35;6.90;;;;;;;;;;5073258;28;20542;-87
2023/12/17 07:55:59;;;;;;;15.00;7.22;;;;;;;;;;5059072;28;20039;-87
2023/12/17 07:58:44;;;;;;;12.00;7.82;;;;;;;;;;5073461;28;20055;-87
2023/12/17 08:01:33;;;;;;;16.45;8.18;;;;;;;;;;5072596;28;20660;-87
2023/12/17 08:04:18;;;;;;;17.58;9.23;;;;;;;;;;5066985;28;20035;-87
2023/12/17 08:07:03;;;;;;;34.58;11.02;;;;;;;;;;5064660;28;20157;-88
2023/12/17 08:09:47;;;;;;;16.88;10.20;;;;;;;;;;5064227;28;20112;-86
2023/12/17 08:12:32;;;;;;;21.58;9.52;;;;;;;;;;5057837;28;20622;-86
2023/12/17 08:15:16;;;;;;;18.00;10.68;;;;;;;;;;5064801;28;20043;-85
2023/12/17 08:18:01;;;;;;;17.35;8.88;;;;;;;;;;5064354;28;20125;-87
2023/12/17 08:20:46;;;;;;;16.55;10.18;;;;;;;;;;5063625;28;20416;-87
2023/12/17 08:23:30;;;;;;;16.48;9.40;;;;;;;;;;5060865;28;20031;-86
2023/12/17 08:26:15;;;;;;;20.20;10.13;;;;;;;;;;5057855;28;20091;-86
2023/12/17 08:29:00;;;;;;;19.42;10.73;;;;;;;;;;5051615;28;20055;-86
2023/12/17 08:31:45;;;;;;;19.83;9.65;;;;;;;;;;5064778;28;20043;-87
2023/12/17 08:34:31;;;;;;;22.77;9.68;;;;;;;;;;5076391;28;20419;-88
2023/12/17 08:37:16;;;;;;;13.50;7.72;;;;;;;;;;5079294;28;20082;-85
2023/12/17 08:40:03;;;;;;;18.52;9.60;;;;;;;;;;5059892;28;20482;-89
2023/12/17 08:42:47;;;;;;;17.52;9.88;;;;;;;;;;5071279;28;20039;-89
2023/12/17 08:45:32;;;;;;;17.80;7.03;;;;;;;;;;5071332;28;20078;-90
2023/12/17 08:48:17;;;;;;;19.58;8.05;;;;;;;;;;5070988;28;20044;-86
2023/12/17 08:51:03;;;;;;;17.27;8.18;;;;;;;;;;5071280;28;20066;-87
2023/12/17 08:53:48;;;;;;;18.20;9.35;;;;;;;;;;5076185;28;20055;-85
2023/12/17 08:56:33;;;;;;;19.52;8.77;;;;;;;;;;5069110;28;20793;-86
2023/12/17 08:59:17;;;;;;;22.38;9.40;;;;;;;;;;5065901;28;20405;-87
2023/12/17 09:02:02;;;;;;;18.77;8.85;;;;;;;;;;5065961;28;20039;-85
2023/12/17 09:04:48;;;;;;;16.08;8.27;;;;;;;;;;5079848;28;20500;-88
2023/12/17 09:07:33;;;;;;;21.23;9.25;;;;;;;;;;5057879;28;20146;-87
2023/12/17 09:10:20;;;;;;;19.27;9.45;;;;;;;;;;5056316;28;20036;-87
2023/12/17 09:13:04;;;;;;;21.15;9.57;;;;;;;;;;5057935;28;20047;-87
2023/12/17 09:15:49;;;;;;;25.05;9.63;;;;;;;;;;5064150;28;20043;-85
2023/12/17 09:18:33;;;;;;;18.30;10.07;;;;;;;;;;5045523;28;20094;-88
2023/12/17 09:21:18;;;;;;;23.50;10.13;;;;;;;;;;5066618;28;20042;-85
2023/12/17 09:24:04;;;;;;;18.20;7.93;;;;;;;;;;5057802;28;20067;-86
2023/12/17 09:26:48;;;;;;;23.63;11.50;;;;;;;;;;5059682;28;20086;-82
2023/12/17 09:29:33;;;;;;;19.67;10.98;;;;;;;;;;5060904;28;20071;-87
2023/12/17 09:32:17;;;;;;;22.10;11.13;;;;;;;;;;5064357;28;20472;-87
2023/12/17 09:35:02;;;;;;;27.25;11.23;;;;;;;;;;5057473;28;20400;-89
2023/12/17 09:37:47;;;;;;;25.88;11.07;;;;;;;;;;5038894;28;20506;-85
2023/12/17 09:40:32;;;;;;;26.77;12.15;;;;;;;;;;5069105;28;20059;-86
2023/12/17 09:43:18;;;;;;;23.35;10.57;;;;;;;;;;5073054;28;20047;-84
2023/12/17 09:46:02;;;;;;;21.75;10.52;;;;;;;;;;5063296;28;20043;-84
2023/12/17 09:48:47;;;;;;;26.70;12.40;;;;;;;;;;5060169;28;20579;-83
2023/12/17 09:51:36;;;;;;;20.80;10.77;;;;;;;;;;5063074;28;20039;-88
2023/12/17 09:54:21;;;;;;;21.60;10.98;;;;;;;;;;5068025;28;20039;-87
2023/12/17 09:57:06;;;;;;;23.33;10.07;;;;;;;;;;5032806;28;20519;-87
2023/12/17 09:59:51;;;;;;;25.08;9.98;;;;;;;;;;5049800;28;20500;-86
2023/12/17 10:02:36;;;;;;;20.92;10.90;;;;;;;;;;5083380;28;20039;-83
2023/12/17 10:05:21;;;;;;;14.48;9.25;;;;;;;;;;5058348;28;20051;-83
2023/12/17 10:08:06;;;;;;;19.20;9.38;;;;;;;;;;5067547;28;20071;-84
2023/12/17 10:10:51;;;;;;;21.83;10.05;;;;;;;;;;5068865;28;20107;-84
2023/12/17 10:13:36;;;;;;;20.65;10.52;;;;;;;;;;5068723;28;20090;-83
2023/12/17 10:16:22;;;;;;;30.35;12.88;;;;;;;;;;5067765;28;20397;-84
2023/12/17 10:19:09;;;;;;;23.88;11.23;;;;;;;;;;5059036;28;20043;-83
2023/12/17 10:21:53;;;;;;;30.40;14.13;;;;;;;;;;5051572;28;20059;-84
2023/12/17 10:24:38;;;;;;;26.30;13.63;;;;;;;;;;5068488;28;20071;-84
2023/12/17 10:27:22;;;;;;;30.95;15.35;;;;;;;;;;5068832;28;20086;-84
2023/12/17 10:30:08;;;;;;;31.00;14.85;;;;;;;;;;5065920;28;20075;-84
2023/12/17 10:32:53;;;;;;;27.90;15.48;;;;;;;;;;5057381;28;20063;-83
2023/12/17 10:35:38;;;;;;;30.33;17.58;;;;;;;;;;5072858;28;20086;-84
2023/12/17 10:38:24;;;;;;;29.23;17.85;;;;;;;;;;5072357;28;20067;-83
2023/12/17 10:41:09;;;;;;;32.45;17.33;;;;;;;;;;5073311;28;20520;-82
2023/12/17 10:43:56;;;;;;;30.52;17.63;;;;;;;;;;5071075;28;20052;-81
2023/12/17 10:46:42;;;;;;;30.02;17.52;;;;;;;;;;5072777;28;20036;-89
2023/12/17 10:49:27;;;;;;;34.22;16.73;;;;;;;;;;5057402;28;20040;-87
2023/12/17 10:52:12;;;;;;;39.92;18.75;;;;;;;;;;5072368;28;20078;-89
2023/12/17 10:54:57;;;;;;;40.83;17.45;;;;;;;;;;5072870;28;20066;-89
2023/12/17 10:57:44;;;;;;;40.58;18.20;;;;;;;;;;5073355;28;20043;-90
2023/12/17 11:00:30;;;;;;;29.88;15.60;;;;;;;;;;5073452;28;20039;-87
2023/12/17 11:03:16;;;;;;;35.47;16.80;;;;;;;;;;5074022;28;20082;-90
2023/12/17 11:06:01;;;;;;;33.13;17.75;;;;;;;;;;5073241;28;20110;-91
2023/12/17 11:08:46;;;;;;;29.25;14.98;;;;;;;;;;5068065;28;20567;-86
2023/12/17 11:11:32;;;;;;;27.27;16.10;;;;;;;;;;5064545;28;20059;-86
2023/12/17 11:14:16;;;;;;;25.15;14.57;;;;;;;;;;5060546;28;20163;-85
2023/12/17 11:17:02;;;;;;;29.65;14.93;;;;;;;;;;5067965;28;20044;-89
2023/12/17 11:19:53;;;;;;;21.13;12.35;;;;;;;;;;5066009;28;20150;-85
2023/12/17 11:22:38;;;;;;;21.33;12.70;;;;;;;;;;5074860;28;20042;-85
2023/12/17 11:25:29;;;;;;;25.15;12.48;;;;;;;;;;5045832;28;20400;-84
2023/12/17 11:28:19;;;;;;;23.73;13.65;;;;;;;;;;5061279;28;20055;-84
2023/12/17 11:31:04;;;;;;;21.65;13.40;;;;;;;;;;5061700;28;20044;-84
2023/12/17 11:33:49;;;;;;;25.75;13.90;;;;;;;;;;5057374;28;20032;-84
2023/12/17 11:36:34;;;;;;;25.30;14.95;;;;;;;;;;5067727;28;20079;-83
2023/12/17 11:39:18;;;;;;;28.38;12.70;;;;;;;;;;5069630;28;20063;-87
2023/12/17 11:42:03;;;;;;;21.08;12.85;;;;;;;;;;5066620;28;20047;-88
2023/12/17 11:44:49;;;;;;;20.10;11.75;;;;;;;;;;5060999;28;20154;-87
2023/12/17 11:47:33;;;;;;;19.00;11.52;;;;;;;;;;5070476;28;20575;-86
2023/12/17 11:50:18;;;;;;;19.27;10.90;;;;;;;;;;5064831;28;20050;-88
2023/12/17 11:53:02;;;;;;;21.48;12.18;;;;;;;;;;5072412;28;20081;-87
2023/12/17 11:55:49;;;;;;;22.77;13.07;;;;;;;;;;5060641;28;20051;-88
2023/12/17 11:58:45;;;;;;;19.08;12.30;;;;;;;;;;5062860;28;20051;-85
2023/12/17 12:01:30;;;;;;;21.40;13.05;;;;;;;;;;5059698;28;20530;-86
2023/12/17 12:04:15;;;;;;;21.35;11.68;;;;;;;;;;5062088;28;20063;-86
2023/12/17 12:06:59;;;;;;;18.02;11.25;;;;;;;;;;5067964;28;20039;-85
2023/12/17 12:09:45;;;;;;;21.83;12.27;;;;;;;;;;5066562;28;20048;-85
2023/12/17 12:12:33;;;;;;;23.77;12.05;;;;;;;;;;5069551;28;20093;-87
2023/12/17 12:15:18;;;;;;;22.23;13.40;;;;;;;;;;5068826;28;20116;-86
2023/12/17 12:18:02;;;;;;;25.70;13.32;;;;;;;;;;5067260;28;20051;-86
2023/12/17 12:20:47;;;;;;;24.67;12.98;;;;;;;;;;5058907;28;20044;-84
2023/12/17 12:23:32;;;;;;;23.65;12.82;;;;;;;;;;5067370;28;20405;-85
2023/12/17 12:26:17;;;;;;;27.33;13.80;;;;;;;;;;5070104;28;20040;-86
2023/12/17 12:29:06;;;;;;;20.48;11.93;;;;;;;;;;5069276;28;20075;-85
2023/12/17 12:31:52;;;;;;;22.20;13.27;;;;;;;;;;5066916;28;20040;-86
2023/12/17 12:34:39;;;;;;;24.15;13.10;;;;;;;;;;5069730;28;20036;-86
2023/12/17 12:37:36;;;;;;;26.13;13.93;;;;;;;;;;5069628;28;20035;-86
2023/12/17 12:40:30;;;;;;;22.00;12.02;;;;;;;;;;5066955;28;20620;-86
2023/12/17 12:43:17;;;;;;;23.55;13.70;;;;;;;;;;5069850;28;20121;-86
2023/12/17 12:46:01;;;;;;;24.75;14.27;;;;;;;;;;5056226;28;20519;-86
2023/12/17 12:48:53;;;;;;;28.58;15.05;;;;;;;;;;5052069;28;20051;-86
2023/12/17 12:51:37;;;;;;;29.70;14.20;;;;;;;;;;5069494;28;20526;-86
2023/12/17 12:54:22;;;;;;;25.08;13.75;;;;;;;;;;5071170;28;20093;-86
2023/12/17 12:57:06;;;;;;;27.98;15.68;;;;;;;;;;5071293;28;20066;-87
2023/12/17 12:59:51;;;;;;;30.55;17.20;;;;;;;;;;5071041;28;20042;-86
2023/12/17 13:02:37;;;;;;;32.25;16.65;;;;;;;;;;5071221;28;20040;-87
2023/12/17 13:05:22;;;;;;;30.85;16.27;;;;;;;;;;5071735;28;20400;-86
2023/12/17 13:08:07;;;;;;;33.35;18.33;;;;;;;;;;5071004;28;20454;-86
2023/12/17 13:10:53;;;;;;;29.70;15.50;;;;;;;;;;5071454;28;20043;-84
2023/12/17 13:13:38;;;;;;;30.80;16.25;;;;;;;;;;5071502;28;20085;-85
2023/12/17 13:16:23;;;;;;;31.58;18.55;;;;;;;;;;5071405;28;20036;-86
2023/12/17 13:19:07;;;;;;;30.60;17.45;;;;;;;;;;5071052;28;20086;-86
2023/12/17 13:21:52;;;;;;;31.80;16.48;;;;;;;;;;5056087;28;20027;-87
2023/12/17 13:24:37;;;;;;;33.05;18.52;;;;;;;;;;5071469;28;20035;-86
2023/12/17 13:27:21;;;;;;;35.90;18.70;;;;;;;;;;5071387;28;20495;-85
2023/12/17 13:30:06;;;;;;;33.28;17.50;;;;;;;;;;5070848;28;20503;-86
2023/12/17 13:32:51;;;;;;;33.72;18.50;;;;;;;;;;5071308;28;20118;-86
2023/12/17 13:35:35;;;;;;;32.42;18.42;;;;;;;;;;5071152;28;20035;-86
2023/12/17 13:38:20;;;;;;;31.55;19.08;;;;;;;;;;5055539;28;20040;-86
2023/12/17 13:41:04;;;;;;;31.08;18.00;;;;;;;;;;5055266;28;20106;-86
2023/12/17 13:43:49;;;;;;;29.63;15.60;;;;;;;;;;5056128;28;20638;-86
2023/12/17 13:46:34;;;;;;;29.80;17.20;;;;;;;;;;5071078;28;20044;-87
2023/12/17 13:49:18;;;;;;;30.60;16.52;;;;;;;;;;5070760;28;20086;-85
2023/12/17 13:52:03;;;;;;;28.23;16.25;;;;;;;;;;5070592;28;20101;-86
2023/12/17 13:54:48;;;;;;;28.27;15.40;;;;;;;;;;5070956;28;20031;-86
2023/12/17 13:57:32;;;;;;;26.15;14.10;;;;;;;;;;5070816;28;20040;-87
2023/12/17 14:00:17;;;;;;;26.88;14.25;;;;;;;;;;5070507;28;20052;-85
2023/12/17 14:03:03;;;;;;;27.33;16.02;;;;;;;;;;5070273;28;20035;-87
2023/12/17 14:05:47;;;;;;;26.63;15.68;;;;;;;;;;5071179;28;20115;-86
2023/12/17 14:08:32;;;;;;;25.02;14.38;;;;;;;;;;5075365;28;20603;-86
2023/12/17 14:11:17;;;;;;;25.52;14.10;;;;;;;;;;5074151;28;20408;-86
2023/12/17 14:14:01;;;;;;;23.75;14.43;;;;;;;;;;5074458;28;20043;-84
2023/12/17 14:16:46;;;;;;;26.75;15.50;;;;;;;;;;5074236;28;20582;-86
2023/12/17 14:19:34;;;;;;;26.65;15.00;;;;;;;;;;5074344;28;20125;-86
2023/12/17 14:22:19;;;;;;;29.70;15.50;;;;;;;;;;5073883;28;20035;-87
2023/12/17 14:25:08;;;;;;;31.38;15.35;;;;;;;;;;5058740;28;20500;-85
2023/12/17 14:27:53;;;;;;;32.30;16.65;;;;;;;;;;5074427;28;20558;-86
2023/12/17 14:30:37;;;;;;;30.13;15.98;;;;;;;;;;5061318;28;20081;-86
2023/12/17 14:33:21;;;;;;;30.23;14.80;;;;;;;;;;5058547;28;20070;-87
2023/12/17 14:36:06;;;;;;;24.30;15.05;;;;;;;;;;5073828;28;20109;-86
2023/12/17 14:38:52;;;;;;;26.67;14.13;;;;;;;;;;5073693;28;20520;-86
2023/12/17 14:41:37;;;;;;;31.27;15.00;;;;;;;;;;5074268;28;20039;-86
2023/12/17 14:44:21;;;;;;;27.20;15.82;;;;;;;;;;5073728;28;20522;-87
2023/12/17 14:47:06;;;;;;;24.70;14.77;;;;;;;;;;5073021;28;20085;-85
2023/12/17 14:49:50;;;;;;;25.58;14.60;;;;;;;;;;5057205;28;20512;-86
2023/12/17 14:52:35;;;;;;;31.25;15.38;;;;;;;;;;5073481;28;20120;-84
2023/12/17 14:55:19;;;;;;;31.58;15.25;;;;;;;;;;5064172;28;20534;-85
2023/12/17 14:58:07;;;;;;;28.63;14.18;;;;;;;;;;5073922;28;20086;-85
2023/12/17 15:00:52;;;;;;;26.80;14.77;;;;;;;;;;5074038;28;20039;-85
2023/12/17 15:03:37;;;;;;;29.85;15.15;;;;;;;;;;5073802;28;20032;-86
2023/12/17 15:06:22;;;;;;;25.23;14.15;;;;;;;;;;5073151;28;20036;-87
2023/12/17 15:09:06;;;;;;;24.38;14.65;;;;;;;;;;5058548;28;20103;-84
2023/12/17 15:11:51;;;;;;;29.25;14.23;;;;;;;;;;5073897;28;20055;-87
2023/12/17 15:14:36;;;;;;;32.67;15.35;;;;;;;;;;5073708;28;20039;-85
2023/12/17 15:17:21;;;;;;;28.55;13.60;;;;;;;;;;5062575;28;20038;-86
2023/12/17 15:20:06;;;;;;;30.75;14.57;;;;;;;;;;5066279;28;20043;-84
2023/12/17 15:22:50;;;;;;;28.83;13.13;;;;;;;;;;5066585;28;20110;-84
2023/12/17 15:25:35;;;;;;;27.33;13.40;;;;;;;;;;5057880;28;20043;-86
2023/12/17 15:28:19;;;;;;;31.48;13.75;;;;;;;;;;5057369;28;20048;-84
2023/12/17 15:31:04;;;;;;;30.17;13.55;;;;;;;;;;5073993;28;20047;-85
2023/12/17 15:33:49;;;;;;;25.70;11.63;;;;;;;;;;5073257;28;20504;-85
2023/12/17 15:36:38;;;;;;;25.17;11.02;;;;;;;;;;5060088;28;20059;-84
2023/12/17 15:39:23;;;;;;;28.25;12.30;;;;;;;;;;5065207;28;20063;-87
2023/12/17 15:42:08;;;;;;;23.42;10.25;;;;;;;;;;5058432;28;20079;-86
2023/12/17 15:44:52;;;;;;;17.83;8.85;;;;;;;;;;5060497;28;20094;-84
2023/12/17 15:47:37;;;;;;;23.88;9.75;;;;;;;;;;5054413;28;20048;-85
2023/12/17 15:50:21;;;;;;;23.50;9.10;;;;;;;;;;5068075;28;20089;-85
2023/12/17 15:53:06;;;;;;;25.27;9.48;;;;;;;;;;5072073;28;20047;-86
2023/12/17 15:55:50;;;;;;;22.73;9.00;;;;;;;;;;5060501;28;20054;-85
2023/12/17 15:58:35;;;;;;;23.48;9.23;;;;;;;;;;5055427;28;20614;-86
2023/12/17 16:01:19;;;;;;;27.58;10.05;;;;;;;;;;5056760;28;20566;-86
2023/12/17 16:04:04;;;;;;;22.30;7.93;;;;;;;;;;5063056;28;20123;-87
2023/12/17 16:06:48;;;;;;;16.73;7.00;;;;;;;;;;5058767;28;20028;-87
2023/12/17 16:09:33;;;;;;;22.00;7.72;;;;;;;;;;5076404;28;20511;-85